Portada
METAR-TAF:

METAR-TAF

Aeropuertos :

Cayo Hueso, Florida, Estados Unidos

latitud: 24-34-46N, longitud: 081-41-02W, altitud: 1 m

Observación

El informe se hizo hace 23 minutos, a las 13:53 UTC
Viento 12 kt del noreste
Temperatura 26°C
Humedad 74%
Presión 1019 hPa
Visibilidad: 16.1 km
Nubes dispersas a una altura de 3200 ft

METAR: KNQX 231353Z 04012KT 10SM SCT032 26/21 A3009 RMK AO2 SLP189 T02560211 $

Hora: 10:16 (14:16 UTC)

Pronóstico

Pronóstico válido del 23 a las 10 UTC al 24 a las 07 UTC
Viento 13 kt del este-noreste con ráfagas de 23 kt
Visibilidad 10 km o más
Nubes dispersas a una altura de 3000 ft
Evolucionando progresivamente
del 23 a las 22 UTC al 24 a las 00 UTC
Viento 15 kt del este
Visibilidad: 1004 m
Escasas nubes a una altura de 3000 ft

TAF: KNQX 2310/2407 07013G23KT 9999 SCT030 QNH3000INS BECMG 2322/2400 09015KT 9999 FEW030 QNH3003INS AUTOMATED SENSOR METWATCH 2310 TIL 2322 TX25/2321Z TN23/2312Z AMD 1004 FN00274

Observaciones y pronósticos meteorológicos de más de 4000 aeropuertos (mensajes METAR y TAF).

Los puntos amarillos y rojos representan las estaciones disponibles.

Ponga el ratón en el punto deseado para ver el nombre de la estación.

Haga clic para ver las observaciones y los pronósticos meteorológicos.

Para cambiar el mapa : haga clic en los botones verdes con una cruz de color negro para hacer un zoom, en el botón verde con un guión para alejar o en las flechas verdes para mapas adyacentes.


METAR-TAF: